Time;durP1;ratioP1;P1;durP2;ratioP2;P2;SDS_P1;SDS_P2;PMS_P1;PMS_P2;Temp;Humidity;BMP_temperature;BMP_pressure;BME280_temperature;BME280_humidity;BME280_pressure;Samples;Min_cycle;Max_cycle;Signal;HPM_P1;HPM_P2
2023/12/19 00:00:57;;;;;;;17.92;14.98;;;-1.50;99.90;;;;;;5033038;28;20207;-56
2023/12/19 00:03:24;;;;;;;15.25;13.43;;;-1.50;99.90;;;;;;5057429;22;20300;-60
2023/12/19 00:05:52;;;;;;;16.20;14.18;;;-1.50;99.90;;;;;;5044211;28;20206;-59
2023/12/19 00:08:19;;;;;;;17.42;14.07;;;-1.50;99.90;;;;;;5043376;28;20849;-59
2023/12/19 00:10:46;;;;;;;16.20;13.30;;;-1.50;99.90;;;;;;5044730;28;20230;-58
2023/12/19 00:13:13;;;;;;;17.60;14.68;;;-1.50;99.90;;;;;;5042970;28;20199;-58
2023/12/19 00:15:40;;;;;;;16.60;14.90;;;-1.50;99.90;;;;;;5044089;28;20195;-60
2023/12/19 00:18:06;;;;;;;17.55;15.07;;;-1.50;99.90;;;;;;5047154;28;20202;-58
2023/12/19 00:20:33;;;;;;;17.75;16.08;;;-1.50;99.90;;;;;;5045205;28;20290;-59
2023/12/19 00:23:01;;;;;;;17.40;15.57;;;-1.50;99.90;;;;;;5052449;28;20206;-60
2023/12/19 00:25:30;;;;;;;17.35;15.65;;;-1.50;99.90;;;;;;5041614;28;20205;-57
2023/12/19 00:27:58;;;;;;;18.58;14.70;;;-1.50;99.90;;;;;;5052121;28;20276;-60
2023/12/19 00:30:25;;;;;;;17.85;13.70;;;-1.50;99.90;;;;;;5051898;28;20806;-59
2023/12/19 00:32:52;;;;;;;16.52;14.75;;;-1.50;99.90;;;;;;5046834;28;20586;-58
2023/12/19 00:35:19;;;;;;;18.10;15.30;;;-1.50;99.90;;;;;;5052032;28;20309;-59
2023/12/19 00:37:46;;;;;;;17.20;15.35;;;-1.50;99.90;;;;;;5051349;28;20298;-58
2023/12/19 00:40:14;;;;;;;17.20;15.32;;;-1.40;99.90;;;;;;5051588;28;20221;-56
2023/12/19 00:42:42;;;;;;;19.95;15.63;;;-1.40;99.90;;;;;;5052165;28;20203;-56
2023/12/19 00:45:10;;;;;;;16.70;14.93;;;-1.40;99.90;;;;;;5047484;28;20254;-60
2023/12/19 00:47:38;;;;;;;18.42;14.63;;;-1.40;99.90;;;;;;5050739;28;20194;-58
2023/12/19 00:50:07;;;;;;;19.65;16.10;;;-1.40;99.90;;;;;;5052485;28;20226;-59
2023/12/19 00:52:34;;;;;;;19.08;16.90;;;-1.30;99.90;;;;;;5051092;28;20226;-59
2023/12/19 00:55:01;;;;;;;16.33;14.40;;;-1.30;99.90;;;;;;5051968;28;20309;-57
2023/12/19 00:57:29;;;;;;;16.27;14.65;;;-1.20;99.90;;;;;;5050948;28;20203;-60
2023/12/19 00:59:56;;;;;;;18.05;16.05;;;-1.20;99.90;;;;;;5051703;28;20206;-59
2023/12/19 01:02:23;;;;;;;17.23;15.35;;;-1.20;99.90;;;;;;5051927;28;20206;-59
2023/12/19 01:04:50;;;;;;;16.88;15.15;;;-1.10;99.90;;;;;;5051691;28;20241;-60
2023/12/19 01:07:16;;;;;;;17.08;14.65;;;-1.10;99.90;;;;;;5051241;28;20305;-57
2023/12/19 01:09:43;;;;;;;19.42;15.68;;;-1.00;99.90;;;;;;5050015;28;20199;-58
2023/12/19 01:12:10;;;;;;;15.88;14.27;;;-1.00;99.90;;;;;;5052156;28;20818;-58
2023/12/19 01:14:38;;;;;;;17.40;15.75;;;-1.00;99.90;;;;;;5051521;28;20229;-58
2023/12/19 01:17:05;;;;;;;14.88;13.32;;;-1.00;99.90;;;;;;5048335;28;20583;-57
2023/12/19 01:19:32;;;;;;;17.10;14.77;;;-0.90;99.90;;;;;;5051113;28;20245;-59
2023/12/19 01:21:59;;;;;;;16.65;14.15;;;-0.90;99.90;;;;;;5052063;28;20205;-58
2023/12/19 01:24:26;;;;;;;18.85;14.73;;;-0.80;99.90;;;;;;5051969;28;20226;-60
2023/12/19 01:26:53;;;;;;;15.15;13.05;;;-0.80;99.90;;;;;;5052054;28;20198;-60
2023/12/19 01:29:20;;;;;;;18.10;14.52;;;-0.80;99.90;;;;;;5050496;28;20893;-56
2023/12/19 01:31:48;;;;;;;16.20;14.75;;;-0.80;99.90;;;;;;5052196;28;20234;-56
2023/12/19 01:34:15;;;;;;;15.60;14.00;;;-0.70;99.90;;;;;;5050970;28;20233;-60
2023/12/19 01:36:42;;;;;;;13.73;12.27;;;-0.70;99.90;;;;;;5052037;28;20305;-59
2023/12/19 01:39:09;;;;;;;15.55;14.02;;;-0.70;99.90;;;;;;5051725;28;20238;-60
2023/12/19 01:41:36;;;;;;;16.25;14.57;;;-0.70;99.90;;;;;;5052225;28;20595;-58
2023/12/19 01:44:03;;;;;;;15.10;13.60;;;-0.70;99.90;;;;;;5051974;28;20313;-60
2023/12/19 01:46:30;;;;;;;14.15;12.82;;;-0.60;99.90;;;;;;5051932;28;20214;-55
2023/12/19 01:49:00;;;;;;;14.38;13.00;;;-0.60;99.90;;;;;;5051485;28;20268;-60
2023/12/19 01:51:27;;;;;;;16.50;14.70;;;-0.60;99.90;;;;;;5051692;28;20789;-58
2023/12/19 01:53:55;;;;;;;15.35;13.85;;;-0.60;99.90;;;;;;5051661;28;20230;-60
2023/12/19 01:56:24;;;;;;;16.80;15.15;;;-0.60;99.90;;;;;;5051821;28;20297;-58
2023/12/19 01:58:51;;;;;;;15.35;13.77;;;-0.60;99.90;;;;;;5051630;28;20208;-59
2023/12/19 02:01:18;;;;;;;15.13;13.70;;;-0.60;99.90;;;;;;5051710;28;20217;-60
2023/12/19 02:03:47;;;;;;;15.75;14.40;;;-0.60;99.90;;;;;;5051410;28;20856;-57
2023/12/19 02:06:17;;;;;;;15.30;13.00;;;-0.60;99.90;;;;;;5051418;28;20227;-59
2023/12/19 02:08:44;;;;;;;15.93;14.20;;;-0.60;99.90;;;;;;5051628;28;20210;-58
2023/12/19 02:11:11;;;;;;;14.27;13.02;;;-0.60;99.90;;;;;;5051663;28;20248;-59
2023/12/19 02:13:39;;;;;;;15.02;13.63;;;-0.60;99.90;;;;;;5051528;28;20226;-59
2023/12/19 02:16:07;;;;;;;14.82;12.90;;;-0.60;99.90;;;;;;5051548;28;20241;-59
2023/12/19 02:18:34;;;;;;;13.82;12.32;;;-0.60;99.90;;;;;;5051192;28;20206;-59
2023/12/19 02:21:00;;;;;;;13.80;12.38;;;-0.60;99.90;;;;;;5051909;28;20202;-59
2023/12/19 02:23:29;;;;;;;13.73;12.43;;;-0.60;99.90;;;;;;5051656;28;20256;-60
2023/12/19 02:25:56;;;;;;;15.98;14.35;;;-0.60;99.90;;;;;;5051543;28;20297;-60
2023/12/19 02:28:22;;;;;;;10.95;9.85;;;-0.50;99.90;;;;;;5051246;28;20210;-60
2023/12/19 02:30:49;;;;;;;12.57;11.35;;;-0.50;99.90;;;;;;5051310;28;20700;-59
2023/12/19 02:33:16;;;;;;;11.57;10.45;;;-0.50;99.90;;;;;;5051190;28;20214;-59
2023/12/19 02:35:43;;;;;;;10.93;9.82;;;-0.50;99.90;;;;;;5051275;28;20217;-58
2023/12/19 02:38:10;;;;;;;13.77;11.05;;;-0.50;99.90;;;;;;5051338;28;20209;-58
2023/12/19 02:40:38;;;;;;;12.75;11.43;;;-0.50;99.90;;;;;;5051290;28;20297;-58
2023/12/19 02:43:05;;;;;;;13.23;11.45;;;-0.50;99.90;;;;;;5051220;28;20210;-60
2023/12/19 02:45:33;;;;;;;14.02;12.35;;;-0.40;99.90;;;;;;5051326;28;20206;-58
2023/12/19 02:48:00;;;;;;;11.75;10.25;;;-0.40;99.90;;;;;;5050924;28;20213;-59
2023/12/19 02:50:27;;;;;;;11.95;10.63;;;-0.50;99.90;;;;;;5050790;28;20699;-56
2023/12/19 02:52:53;;;;;;;11.15;10.02;;;-0.50;99.90;;;;;;5051231;28;20296;-59
2023/12/19 02:55:20;;;;;;;14.27;11.57;;;-0.50;99.90;;;;;;5051142;28;20226;-59
2023/12/19 02:57:48;;;;;;;12.55;11.35;;;-0.50;99.90;;;;;;5050703;28;20294;-59
2023/12/19 03:00:16;;;;;;;13.13;11.95;;;-0.50;99.90;;;;;;5051023;28;20297;-60
2023/12/19 03:02:44;;;;;;;12.52;11.32;;;-0.60;99.90;;;;;;5053835;28;20298;-60
2023/12/19 03:05:11;;;;;;;16.23;12.60;;;-0.60;99.90;;;;;;5054901;28;20241;-59
2023/12/19 03:07:38;;;;;;;15.52;13.90;;;-0.60;99.90;;;;;;5054717;28;20770;-60
2023/12/19 03:10:08;;;;;;;12.63;11.32;;;-0.70;99.90;;;;;;5054688;28;20272;-59
2023/12/19 03:12:35;;;;;;;11.88;10.65;;;-0.70;99.90;;;;;;5054729;28;20236;-59
2023/12/19 03:15:04;;;;;;;12.23;11.05;;;-0.70;99.90;;;;;;5054675;28;20233;-57
2023/12/19 03:17:30;;;;;;;11.57;10.23;;;-0.80;99.90;;;;;;5054265;28;20249;-59
2023/12/19 03:19:57;;;;;;;12.18;10.32;;;-0.80;99.90;;;;;;5054336;28;20210;-60
2023/12/19 03:22:24;;;;;;;13.27;10.00;;;-0.90;99.90;;;;;;5054723;28;20220;-56
2023/12/19 03:24:51;;;;;;;11.77;10.57;;;-0.90;99.90;;;;;;5054532;28;20316;-60
2023/12/19 03:27:18;;;;;;;10.05;9.10;;;-1.00;99.90;;;;;;5054308;28;20702;-56
2023/12/19 03:29:44;;;;;;;10.13;8.98;;;-1.00;99.90;;;;;;5054534;28;20210;-57
2023/12/19 03:32:12;;;;;;;9.98;8.70;;;-1.00;99.90;;;;;;5054698;28;20234;-57
2023/12/19 03:34:39;;;;;;;10.15;9.10;;;-1.00;99.90;;;;;;5054379;28;20252;-60
2023/12/19 03:37:06;;;;;;;9.85;8.85;;;-1.10;99.90;;;;;;5054418;28;20214;-60
2023/12/19 03:39:33;;;;;;;7.63;6.93;;;-1.10;99.90;;;;;;5054112;28;20301;-60
2023/12/19 03:42:00;;;;;;;11.10;8.20;;;-1.10;99.90;;;;;;5054121;28;20289;-53
2023/12/19 03:44:27;;;;;;;9.48;8.52;;;-1.20;99.90;;;;;;5054344;28;20608;-60
2023/12/19 03:46:54;;;;;;;9.88;8.77;;;-1.20;99.90;;;;;;5054177;28;20206;-59
2023/12/19 03:49:22;;;;;;;10.10;9.20;;;-1.20;99.90;;;;;;5053952;28;20202;-57
2023/12/19 03:51:49;;;;;;;9.75;8.77;;;-1.20;99.90;;;;;;5054270;28;20828;-59
2023/12/19 03:54:17;;;;;;;9.38;8.45;;;-1.30;99.90;;;;;;5053933;28;20234;-58
2023/12/19 03:56:43;;;;;;;9.27;8.02;;;-1.30;99.90;;;;;;5053719;28;20214;-60
2023/12/19 03:59:10;;;;;;;8.30;7.50;;;-1.30;99.90;;;;;;5053689;28;20695;-59
2023/12/19 04:01:44;;;;;;;9.40;8.45;;;-1.40;99.90;;;;;;5053792;28;20203;-60
2023/12/19 04:04:11;;;;;;;11.00;8.27;;;-1.40;99.90;;;;;;5053659;28;20230;-60
2023/12/19 04:06:42;;;;;;;11.02;8.95;;;-1.40;99.90;;;;;;5053681;28;20596;-56
2023/12/19 04:09:09;;;;;;;12.52;9.40;;;-1.40;99.90;;;;;;5053354;28;20207;-58
2023/12/19 04:11:36;;;;;;;9.63;8.70;;;-1.40;99.90;;;;;;5053413;28;20240;-60
2023/12/19 04:14:05;;;;;;;11.43;8.40;;;-1.40;99.90;;;;;;5053371;28;20238;-58
2023/12/19 04:16:32;;;;;;;9.07;8.27;;;-1.40;99.90;;;;;;5053543;28;20207;-57
2023/12/19 04:18:59;;;;;;;12.43;8.93;;;-1.40;99.90;;;;;;5053325;28;20202;-58
2023/12/19 04:21:26;;;;;;;12.80;11.55;;;-1.40;99.90;;;;;;5053604;28;20297;-60
2023/12/19 04:23:54;;;;;;;12.38;9.80;;;-1.40;99.90;;;;;;5053385;28;20228;-59
2023/12/19 04:26:21;;;;;;;9.48;8.57;;;-1.30;99.90;;;;;;5053572;28;20213;-58
2023/12/19 04:28:48;;;;;;;11.73;9.23;;;-1.30;99.90;;;;;;5053248;28;20298;-59
2023/12/19 04:31:15;;;;;;;13.95;10.85;;;-1.30;99.90;;;;;;5053285;28;20734;-59
2023/12/19 04:33:42;;;;;;;11.60;9.82;;;-1.30;99.90;;;;;;5053257;28;20229;-58
2023/12/19 04:36:10;;;;;;;12.20;9.68;;;-1.30;99.90;;;;;;5053281;28;20293;-60
2023/12/19 04:38:37;;;;;;;12.80;11.60;;;-1.30;99.90;;;;;;5052763;28;20596;-59
2023/12/19 04:41:05;;;;;;;13.18;11.05;;;-1.20;99.90;;;;;;5052321;28;20202;-60
2023/12/19 04:43:32;;;;;;;12.80;10.48;;;-1.20;99.90;;;;;;5051250;28;20262;-60
2023/12/19 04:46:00;;;;;;;15.90;13.80;;;-1.20;99.90;;;;;;5052898;28;20294;-60
2023/12/19 04:48:31;;;;;;;14.00;12.57;;;-1.10;99.90;;;;;;5052999;28;20202;-60
2023/12/19 04:50:58;;;;;;;11.85;10.75;;;-1.10;99.90;;;;;;5053053;28;20203;-59
2023/12/19 04:53:25;;;;;;;13.05;11.68;;;-1.10;99.90;;;;;;5052774;28;20226;-58
2023/12/19 04:55:52;;;;;;;11.00;9.80;;;-1.10;99.90;;;;;;5052948;28;20206;-58
2023/12/19 04:58:20;;;;;;;9.40;8.50;;;-1.10;99.90;;;;;;5052613;28;20210;-60
2023/12/19 05:00:48;;;;;;;13.55;12.15;;;-1.10;99.90;;;;;;5052904;28;20210;-57
2023/12/19 05:03:15;;;;;;;13.40;11.60;;;-1.10;99.90;;;;;;5052637;28;20238;-59
2023/12/19 05:05:42;;;;;;;13.45;11.02;;;-1.10;99.90;;;;;;5052689;28;20217;-60
2023/12/19 05:08:10;;;;;;;13.30;10.15;;;-1.00;99.90;;;;;;5052420;28;20211;-60
2023/12/19 05:10:37;;;;;;;11.60;10.50;;;-1.00;99.90;;;;;;5052526;28;20206;-60
2023/12/19 05:13:05;;;;;;;12.88;11.55;;;-1.00;99.90;;;;;;5052291;28;20226;-59
2023/12/19 05:15:33;;;;;;;12.80;10.82;;;-1.00;99.90;;;;;;5052691;28;20213;-58
2023/12/19 05:18:00;;;;;;;16.13;12.13;;;-1.00;99.90;;;;;;5052325;28;20213;-56
2023/12/19 05:20:27;;;;;;;14.07;12.27;;;-1.00;99.90;;;;;;5052286;28;20212;-60
2023/12/19 05:22:54;;;;;;;13.50;11.13;;;-1.00;99.90;;;;;;5052428;28;20210;-61
2023/12/19 05:25:21;;;;;;;18.75;11.77;;;-1.00;99.90;;;;;;5051599;28;20222;-59
2023/12/19 05:27:48;;;;;;;13.60;11.50;;;-1.00;99.90;;;;;;5051867;28;20210;-60
2023/12/19 05:30:16;;;;;;;12.65;11.38;;;-1.00;99.90;;;;;;5052207;28;20206;-57
2023/12/19 05:32:44;;;;;;;13.85;12.50;;;-1.00;99.90;;;;;;5052384;28;20317;-58
2023/12/19 05:35:11;;;;;;;12.38;11.25;;;-1.00;99.90;;;;;;5052207;28;20226;-60
2023/12/19 05:37:38;;;;;;;13.45;11.27;;;-0.90;99.90;;;;;;5052064;28;20305;-61
2023/12/19 05:40:07;;;;;;;12.10;10.25;;;-0.90;99.90;;;;;;5051907;28;20652;-57
2023/12/19 05:42:34;;;;;;;11.15;9.70;;;-0.90;99.90;;;;;;5052210;28;20712;-61
2023/12/19 05:45:03;;;;;;;10.52;9.57;;;-0.90;99.90;;;;;;5052026;28;20232;-61
2023/12/19 05:47:30;;;;;;;11.27;9.05;;;-0.90;99.90;;;;;;5051849;28;20249;-58
2023/12/19 05:49:58;;;;;;;13.82;12.63;;;-0.80;99.90;;;;;;5051646;28;20294;-60
2023/12/19 05:52:25;;;;;;;16.60;14.88;;;-0.80;99.90;;;;;;5051849;28;20226;-60
2023/12/19 05:54:52;;;;;;;14.05;12.63;;;-0.80;99.90;;;;;;5051593;28;20344;-59
2023/12/19 05:57:18;;;;;;;14.30;12.00;;;-0.80;99.90;;;;;;5051880;28;20206;-60
2023/12/19 05:59:45;;;;;;;11.60;10.35;;;-0.70;99.90;;;;;;5051644;28;20583;-58
2023/12/19 06:02:12;;;;;;;11.60;10.38;;;-0.70;99.90;;;;;;5051793;28;20213;-60
2023/12/19 06:04:39;;;;;;;10.20;9.30;;;-0.70;99.90;;;;;;5074185;22;20634;-59
2023/12/19 06:07:07;;;;;;;12.02;10.85;;;-0.70;99.90;;;;;;5051412;28;20213;-59
2023/12/19 06:09:34;;;;;;;11.35;9.30;;;-0.70;99.90;;;;;;5051296;28;20210;-59
2023/12/19 06:12:01;;;;;;;11.20;9.43;;;-0.60;99.90;;;;;;5051635;28;20234;-57
2023/12/19 06:14:27;;;;;;;13.10;10.95;;;-0.60;99.90;;;;;;5051503;28;20647;-58
2023/12/19 06:16:54;;;;;;;13.25;11.85;;;-0.60;99.90;;;;;;5051695;28;20213;-59
2023/12/19 06:19:21;;;;;;;13.63;12.02;;;-0.60;99.90;;;;;;5051456;28;20734;-60
2023/12/19 06:21:48;;;;;;;14.05;12.55;;;-0.60;99.90;;;;;;5051496;28;20212;-56
2023/12/19 06:24:16;;;;;;;12.30;11.07;;;-0.60;99.90;;;;;;5051277;28;20799;-59
2023/12/19 06:26:43;;;;;;;12.45;9.35;;;-0.60;99.90;;;;;;5051324;28;20651;-61
2023/12/19 06:29:10;;;;;;;12.32;11.32;;;-0.50;99.90;;;;;;5051473;28;20217;-60
2023/12/19 06:31:43;;;;;;;14.05;12.65;;;-0.50;99.90;;;;;;5051417;28;20649;-60
2023/12/19 06:34:10;;;;;;;13.35;11.95;;;-0.50;99.90;;;;;;5051368;28;20226;-57
2023/12/19 06:36:37;;;;;;;12.55;11.50;;;-0.50;99.90;;;;;;5052282;28;20711;-59
2023/12/19 06:39:04;;;;;;;14.05;9.98;;;-0.50;99.90;;;;;;5055015;28;20206;-59
2023/12/19 06:41:32;;;;;;;10.63;9.55;;;-0.50;99.90;;;;;;5055347;28;20206;-61
2023/12/19 06:43:59;;;;;;;10.57;9.45;;;-0.50;99.90;;;;;;5055543;28;20232;-59
2023/12/19 06:46:26;;;;;;;11.23;10.13;;;-0.50;99.90;;;;;;5055335;28;20293;-58
2023/12/19 06:48:53;;;;;;;12.85;11.57;;;-0.40;99.90;;;;;;5055264;28;20757;-59
2023/12/19 06:51:24;;;;;;;10.27;9.27;;;-0.40;99.90;;;;;;5055221;28;20297;-60
2023/12/19 06:53:52;;;;;;;13.57;10.40;;;-0.40;99.90;;;;;;5054966;28;20344;-59
2023/12/19 06:56:19;;;;;;;11.10;10.10;;;-0.40;99.90;;;;;;5055199;28;20207;-59
2023/12/19 06:58:48;;;;;;;12.07;10.88;;;-0.40;99.90;;;;;;5054595;28;20202;-59
2023/12/19 07:01:16;;;;;;;12.55;10.32;;;-0.40;99.90;;;;;;5054927;28;20217;-59
2023/12/19 07:03:43;;;;;;;8.52;7.60;;;-0.40;99.90;;;;;;5054893;28;20198;-56
2023/12/19 07:06:13;;;;;;;9.90;9.00;;;-0.40;99.90;;;;;;5055092;28;20206;-60
2023/12/19 07:08:40;;;;;;;11.07;9.00;;;-0.40;99.90;;;;;;5054801;28;20209;-58
2023/12/19 07:11:07;;;;;;;9.68;8.68;;;-0.40;99.90;;;;;;5054884;28;20561;-59
2023/12/19 07:13:34;;;;;;;8.63;7.88;;;-0.40;99.90;;;;;;5054607;28;20240;-60
2023/12/19 07:16:03;;;;;;;10.00;8.95;;;-0.40;99.90;;;;;;5053583;28;20726;-57
2023/12/19 07:18:30;;;;;;;9.98;9.00;;;-0.40;99.90;;;;;;5053672;28;20293;-58
2023/12/19 07:20:57;;;;;;;11.02;8.30;;;-0.50;99.90;;;;;;5054516;28;20202;-59
2023/12/19 07:23:24;;;;;;;10.75;9.13;;;-0.50;99.90;;;;;;5054641;28;20202;-57
2023/12/19 07:25:51;;;;;;;11.07;9.88;;;-0.50;99.90;;;;;;5054465;28;20233;-60
2023/12/19 07:28:18;;;;;;;10.10;9.20;;;-0.60;99.90;;;;;;5054376;28;20210;-57
2023/12/19 07:30:45;;;;;;;8.93;7.93;;;-0.60;99.90;;;;;;5054434;28;20211;-58
2023/12/19 07:33:14;;;;;;;13.20;10.00;;;-0.60;99.90;;;;;;5054298;28;20226;-59
2023/12/19 07:35:41;;;;;;;10.65;9.13;;;-0.70;99.90;;;;;;5054472;28;20315;-60
2023/12/19 07:38:08;;;;;;;11.75;9.63;;;-0.70;99.90;;;;;;5054230;28;20215;-61
2023/12/19 07:40:36;;;;;;;10.90;8.90;;;-0.70;99.90;;;;;;5054269;28;20257;-57
2023/12/19 07:43:03;;;;;;;10.43;9.05;;;-0.80;99.90;;;;;;5054228;28;20744;-58
2023/12/19 07:45:31;;;;;;;11.40;10.40;;;-0.80;99.90;;;;;;5054096;28;20770;-58
2023/12/19 07:47:58;;;;;;;9.82;8.65;;;-0.80;99.90;;;;;;5053354;28;20202;-58
2023/12/19 07:50:27;;;;;;;11.30;10.20;;;-0.80;99.90;;;;;;5054379;28;20206;-59
2023/12/19 07:52:54;;;;;;;9.05;8.27;;;-0.90;99.90;;;;;;5054139;28;20234;-61
2023/12/19 07:55:21;;;;;;;9.98;8.98;;;-0.90;99.90;;;;;;5054038;28;20236;-57
2023/12/19 07:57:48;;;;;;;10.75;9.65;;;-0.90;99.90;;;;;;5053809;28;20210;-60
2023/12/19 08:00:15;;;;;;;10.50;9.43;;;-0.90;99.90;;;;;;5053887;28;20305;-60
2023/12/19 08:02:43;;;;;;;13.35;9.10;;;-0.90;99.90;;;;;;5053817;28;20529;-58
2023/12/19 08:05:12;;;;;;;13.27;11.73;;;-1.00;99.90;;;;;;5053033;28;20226;-61
2023/12/19 08:07:40;;;;;;;11.00;9.65;;;-1.00;99.90;;;;;;5053369;28;20210;-60
2023/12/19 08:10:07;;;;;;;12.65;9.48;;;-1.00;99.90;;;;;;5053592;28;20634;-57
2023/12/19 08:12:34;;;;;;;12.32;11.15;;;-1.00;99.90;;;;;;5053723;28;20230;-58
2023/12/19 08:15:01;;;;;;;12.93;10.50;;;-1.00;99.90;;;;;;5053483;28;20254;-61
2023/12/19 08:17:28;;;;;;;12.52;11.35;;;-0.90;99.90;;;;;;5055008;28;20206;-58
2023/12/19 08:19:55;;;;;;;15.20;11.05;;;-1.00;99.90;;;;;;5053657;28;20206;-61
2023/12/19 08:22:23;;;;;;;10.68;9.13;;;-0.90;99.90;;;;;;5053615;28;20202;-58
2023/12/19 08:24:51;;;;;;;11.43;10.38;;;-0.90;99.90;;;;;;5053319;28;20234;-60
2023/12/19 08:27:22;;;;;;;11.57;9.65;;;-0.90;99.90;;;;;;5053387;28;20215;-60
2023/12/19 08:29:49;;;;;;;10.77;9.85;;;-0.90;99.90;;;;;;5053223;28;20206;-60
2023/12/19 08:32:16;;;;;;;13.32;9.27;;;-0.90;99.90;;;;;;5043128;28;20290;-60
2023/12/19 08:34:43;;;;;;;9.32;8.43;;;-0.80;99.90;;;;;;5048307;28;20313;-58
2023/12/19 08:37:10;;;;;;;10.65;9.55;;;-0.80;99.90;;;;;;5053041;28;20202;-61
2023/12/19 08:39:37;;;;;;;11.88;9.60;;;-0.70;99.90;;;;;;5066922;28;20294;-60
2023/12/19 08:42:05;;;;;;;9.20;8.30;;;-0.70;99.90;;;;;;5052872;28;20216;-60
2023/12/19 08:44:32;;;;;;;11.30;9.05;;;-0.60;99.90;;;;;;5052955;28;20664;-58
2023/12/19 08:46:59;;;;;;;11.77;9.75;;;-0.50;99.90;;;;;;5052989;28;20215;-60
2023/12/19 08:49:26;;;;;;;10.20;9.32;;;-0.40;99.90;;;;;;5052360;28;20210;-58
2023/12/19 08:51:52;;;;;;;10.88;9.40;;;-0.30;99.90;;;;;;5051622;28;20209;-59
2023/12/19 08:54:19;;;;;;;9.02;8.20;;;-0.20;99.90;;;;;;5052035;28;20230;-60
2023/12/19 08:56:46;;;;;;;13.60;9.15;;;-0.10;99.90;;;;;;5052892;28;20205;-57
2023/12/19 08:59:14;;;;;;;9.48;8.68;;;0.00;99.90;;;;;;5047279;28;20198;-59
2023/12/19 09:01:41;;;;;;;13.32;10.25;;;0.20;99.90;;;;;;5043788;28;20202;-60
2023/12/19 09:04:08;;;;;;;13.90;11.68;;;0.30;99.90;;;;;;5050642;28;20701;-61
2023/12/19 09:06:35;;;;;;;13.07;11.77;;;0.50;99.90;;;;;;5048758;28;20217;-59
2023/12/19 09:09:02;;;;;;;17.65;15.43;;;0.70;99.90;;;;;;5054460;28;20202;-59
2023/12/19 09:11:29;;;;;;;14.55;13.05;;;0.80;99.90;;;;;;5062155;28;20232;-61
2023/12/19 09:13:56;;;;;;;16.63;15.02;;;1.00;99.90;;;;;;5049931;28;20232;-61
2023/12/19 09:16:24;;;;;;;17.88;16.02;;;1.20;99.90;;;;;;5051498;28;20289;-59
2023/12/19 09:18:51;;;;;;;17.15;15.35;;;1.30;99.90;;;;;;5049152;28;20595;-60
2023/12/19 09:21:18;;;;;;;17.45;14.43;;;1.40;99.90;;;;;;5050976;28;20722;-61
2023/12/19 09:23:45;;;;;;;17.27;13.35;;;1.50;99.90;;;;;;5050755;28;20299;-59
2023/12/19 09:26:13;;;;;;;16.13;14.02;;;1.50;99.90;;;;;;5050557;28;20206;-61
2023/12/19 09:28:41;;;;;;;17.20;15.48;;;1.60;99.90;;;;;;5049870;28;20214;-61
2023/12/19 09:31:08;;;;;;;14.30;12.95;;;1.60;99.90;;;;;;5050807;28;20713;-60
2023/12/19 09:33:38;;;;;;;14.43;12.93;;;1.60;99.90;;;;;;5049748;28;20711;-64
2023/12/19 09:36:05;;;;;;;14.90;13.50;;;1.70;99.90;;;;;;5051002;28;20225;-64
2023/12/19 09:38:32;;;;;;;15.48;13.95;;;1.70;99.90;;;;;;5050091;28;20206;-64
2023/12/19 09:40:59;;;;;;;18.05;15.77;;;1.80;99.90;;;;;;5050992;28;20819;-63
2023/12/19 09:43:31;;;;;;;18.15;16.23;;;1.80;99.90;;;;;;5049855;28;20758;-63
2023/12/19 09:45:59;;;;;;;20.80;18.63;;;1.80;99.90;;;;;;5050642;28;20210;-64
2023/12/19 09:48:28;;;;;;;21.45;17.10;;;1.90;99.90;;;;;;5049940;28;20222;-64
2023/12/19 09:50:59;;;;;;;17.20;15.48;;;2.00;99.90;;;;;;5051412;28;20597;-64
2023/12/19 09:53:26;;;;;;;16.42;14.73;;;2.00;99.90;;;;;;5051060;28;20215;-64
2023/12/19 09:55:53;;;;;;;14.85;13.35;;;2.10;99.90;;;;;;5050455;28;20309;-64
2023/12/19 09:58:20;;;;;;;16.80;15.10;;;2.10;99.90;;;;;;5049402;28;20293;-63
2023/12/19 10:00:47;;;;;;;17.27;15.68;;;2.20;99.90;;;;;;5047664;28;20217;-64
2023/12/19 10:03:16;;;;;;;14.85;13.45;;;2.20;99.90;;;;;;5048166;28;20198;-64
2023/12/19 10:05:44;;;;;;;15.40;13.90;;;2.30;99.90;;;;;;5047699;28;20230;-64
2023/12/19 10:08:14;;;;;;;16.48;12.57;;;2.30;99.90;;;;;;5049783;28;20198;-64
2023/12/19 10:10:51;;;;;;;13.73;12.55;;;2.30;99.90;;;;;;5049400;28;20202;-64
2023/12/19 10:13:27;;;;;;;13.68;12.48;;;2.40;99.90;;;;;;5050842;28;20601;-64
2023/12/19 10:16:00;;;;;;;12.40;11.05;;;2.40;99.90;;;;;;5048690;28;20230;-64
2023/12/19 10:18:27;;;;;;;16.88;13.00;;;2.50;99.90;;;;;;5039395;28;20293;-63
2023/12/19 10:21:04;;;;;;;13.85;12.50;;;2.50;99.90;;;;;;5049409;28;20229;-64
2023/12/19 10:23:33;;;;;;;13.00;11.80;;;2.60;99.90;;;;;;5050592;28;20582;-64
2023/12/19 10:26:00;;;;;;;14.27;11.82;;;2.60;99.90;;;;;;5051155;28;20198;-64
2023/12/19 10:28:27;;;;;;;13.88;12.48;;;2.70;99.90;;;;;;5049305;28;20653;-65
2023/12/19 10:31:10;;;;;;;13.30;12.00;;;2.70;99.90;;;;;;5050788;28;20726;-65
2023/12/19 10:33:42;;;;;;;12.70;11.40;;;2.80;99.90;;;;;;5049384;28;20233;-65
2023/12/19 10:36:09;;;;;;;12.40;11.35;;;2.90;99.90;;;;;;5049134;28;20207;-65
2023/12/19 10:38:47;;;;;;;11.95;10.38;;;3.00;99.90;;;;;;5050039;28;20289;-65
2023/12/19 10:41:22;;;;;;;10.60;9.55;;;3.10;99.90;;;;;;5050747;28;20206;-65
2023/12/19 10:43:50;;;;;;;12.18;10.98;;;3.20;99.90;;;;;;5050500;28;20198;-65
2023/12/19 10:46:18;;;;;;;13.40;12.05;;;3.30;99.90;;;;;;5050712;28;20214;-65
2023/12/19 10:48:47;;;;;;;14.25;12.82;;;3.40;99.90;;;;;;5050604;28;20202;-65
2023/12/19 10:51:16;;;;;;;12.75;11.40;;;3.50;99.90;;;;;;5045475;28;20202;-65
2023/12/19 10:53:58;;;;;;;12.88;10.40;;;3.60;99.90;;;;;;5050055;28;20233;-65
2023/12/19 10:56:25;;;;;;;12.50;11.30;;;3.60;99.90;;;;;;5047931;28;20207;-64
2023/12/19 10:58:58;;;;;;;9.57;8.75;;;3.70;99.90;;;;;;5048359;28;20206;-65
2023/12/19 11:01:27;;;;;;;11.57;9.65;;;3.80;99.90;;;;;;5049723;28;20306;-66
2023/12/19 11:03:58;;;;;;;11.05;9.43;;;3.80;99.90;;;;;;5049754;28;20226;-64
2023/12/19 11:06:30;;;;;;;9.10;8.38;;;3.80;99.90;;;;;;5050011;28;20222;-65
2023/12/19 11:09:05;;;;;;;9.43;8.43;;;3.90;99.90;;;;;;5050158;28;20207;-65
2023/12/19 11:11:37;;;;;;;12.23;10.90;;;4.00;99.90;;;;;;5050024;28;20243;-65
2023/12/19 11:14:05;;;;;;;11.07;9.85;;;4.00;99.90;;;;;;5048552;28;20256;-65
2023/12/19 11:16:40;;;;;;;13.25;9.45;;;4.10;99.90;;;;;;5047602;28;20234;-65
2023/12/19 11:19:16;;;;;;;11.23;9.70;;;4.10;99.90;;;;;;5049209;28;20202;-65
2023/12/19 11:21:49;;;;;;;10.10;8.82;;;4.10;99.90;;;;;;5049463;28;20206;-65
2023/12/19 11:24:22;;;;;;;9.77;8.75;;;4.20;99.90;;;;;;5053703;28;20249;-65
2023/12/19 11:26:53;;;;;;;9.75;8.27;;;4.20;99.90;;;;;;5053472;28;20237;-65
2023/12/19 11:29:42;;;;;;;10.35;9.30;;;4.20;99.90;;;;;;5053793;28;20293;-65
2023/12/19 11:32:40;;;;;;;9.73;8.82;;;4.20;99.90;;;;;;5049078;28;20667;-65
2023/12/19 11:35:11;;;;;;;10.35;9.27;;;4.30;99.90;;;;;;5051154;28;20241;-65
2023/12/19 11:37:39;;;;;;;10.75;8.35;;;4.30;99.90;;;;;;5053930;28;20202;-65
2023/12/19 11:40:09;;;;;;;9.60;8.65;;;4.40;99.90;;;;;;5053588;28;20289;-65
2023/12/19 11:42:48;;;;;;;14.60;9.50;;;4.50;99.90;;;;;;5053769;28;20206;-66
2023/12/19 11:45:37;;;;;;;8.90;8.00;;;4.60;99.90;;;;;;5049418;28;20237;-66
2023/12/19 11:48:34;;;;;;;8.50;7.60;;;4.60;99.90;;;;;;5053330;28;20285;-65
2023/12/19 11:51:01;;;;;;;8.80;7.80;;;4.70;99.90;;;;;;5053476;28;20208;-65
2023/12/19 11:53:28;;;;;;;11.30;8.27;;;4.70;99.90;;;;;;5052711;28;20230;-65
2023/12/19 11:56:05;;;;;;;8.60;7.75;;;4.70;99.90;;;;;;5053098;28;20316;-65
2023/12/19 11:58:32;;;;;;;7.45;6.95;;;4.70;99.90;;;;;;5053431;28;20292;-66
2023/12/19 12:00:59;;;;;;;9.68;7.85;;;4.70;99.90;;;;;;5053223;28;20289;-66
2023/12/19 12:03:26;;;;;;;9.50;8.73;;;4.80;99.90;;;;;;5053321;28;20673;-66
2023/12/19 12:05:54;;;;;;;13.50;9.27;;;4.80;99.90;;;;;;5062657;22;20231;-71
2023/12/19 12:08:21;;;;;;;7.80;7.00;;;4.80;99.90;;;;;;5047895;28;20206;-71
2023/12/19 12:10:59;;;;;;;10.82;8.90;;;4.80;99.90;;;;;;5041417;28;20230;-71
2023/12/19 12:13:29;;;;;;;11.68;9.18;;;4.80;99.90;;;;;;5046676;28;20591;-70
2023/12/19 12:15:57;;;;;;;8.60;7.90;;;4.80;99.90;;;;;;5052981;28;20608;-70
2023/12/19 12:18:24;;;;;;;11.77;9.68;;;4.80;99.90;;;;;;5052365;28;20275;-71
2023/12/19 12:20:51;;;;;;;10.02;7.70;;;4.80;99.90;;;;;;5052938;28;20230;-71
2023/12/19 12:23:19;;;;;;;7.15;6.45;;;4.70;99.90;;;;;;5053165;28;20290;-70
2023/12/19 12:25:56;;;;;;;11.75;8.65;;;4.70;99.90;;;;;;5052942;28;20613;-70
2023/12/19 12:28:26;;;;;;;9.32;8.32;;;4.70;99.90;;;;;;5052397;28;20695;-71
2023/12/19 12:30:59;;;;;;;7.18;6.40;;;4.70;99.90;;;;;;5052679;28;20203;-71
2023/12/19 12:33:27;;;;;;;9.48;8.10;;;4.60;99.90;;;;;;5052279;28;20207;-70
2023/12/19 12:35:55;;;;;;;7.93;6.72;;;4.60;99.90;;;;;;5049717;28;20222;-70
2023/12/19 12:38:23;;;;;;;7.90;7.15;;;4.70;99.90;;;;;;5052288;28;20207;-69
2023/12/19 12:40:59;;;;;;;9.75;8.20;;;4.70;99.90;;;;;;5052686;28;20214;-71